createdAt,value
2018-10-09T00:01:54.380Z,12.20
2018-10-09T00:04:22.888Z,12.20
2018-10-09T00:06:51.445Z,12.20
2018-10-09T00:09:19.981Z,12.20
2018-10-09T00:11:48.495Z,12.20
2018-10-09T00:14:16.988Z,12.20
2018-10-09T00:16:45.560Z,12.00
2018-10-09T00:19:14.236Z,12.00
2018-10-09T00:21:43.066Z,12.00
2018-10-09T00:24:11.681Z,12.00
2018-10-09T00:26:40.345Z,12.10
2018-10-09T00:29:08.829Z,12.10
2018-10-09T00:31:37.313Z,12.10
2018-10-09T00:34:05.841Z,12.20
2018-10-09T00:36:34.604Z,12.20
2018-10-09T00:39:04.331Z,12.10
2018-10-09T00:41:32.836Z,12.10
2018-10-09T00:44:01.412Z,12.10
2018-10-09T00:46:29.965Z,12.10
2018-10-09T00:48:58.580Z,12.00
2018-10-09T00:51:27.340Z,12.00
2018-10-09T00:53:55.888Z,12.00
2018-10-09T00:56:24.373Z,12.00
2018-10-09T00:58:52.997Z,12.00
2018-10-09T01:01:21.609Z,11.90
2018-10-09T01:03:50.144Z,11.90
2018-10-09T01:06:18.601Z,11.90
2018-10-09T01:08:47.203Z,11.90
2018-10-09T01:11:15.805Z,11.90
2018-10-09T01:13:44.414Z,11.90
2018-10-09T01:16:12.976Z,11.80
2018-10-09T01:18:41.624Z,11.80
2018-10-09T01:21:10.200Z,11.80
2018-10-09T01:23:38.808Z,11.70
2018-10-09T01:26:07.659Z,11.70
2018-10-09T01:28:36.216Z,11.60
2018-10-09T01:31:04.948Z,11.60
2018-10-09T01:33:33.491Z,11.50
2018-10-09T01:36:01.993Z,11.50
2018-10-09T01:38:30.542Z,11.50
2018-10-09T01:40:59.176Z,11.50
2018-10-09T01:43:27.751Z,11.50
2018-10-09T01:45:56.326Z,11.40
2018-10-09T01:48:24.849Z,11.40
2018-10-09T01:50:53.320Z,11.40
2018-10-09T01:53:21.844Z,11.40
2018-10-09T01:55:50.365Z,11.30
2018-10-09T01:58:18.863Z,11.20
2018-10-09T02:00:47.421Z,11.20
2018-10-09T02:03:15.921Z,11.20
2018-10-09T02:05:44.449Z,11.10
2018-10-09T02:08:12.913Z,11.10
2018-10-09T02:10:41.376Z,11.00
2018-10-09T02:13:09.921Z,11.00
2018-10-09T02:15:38.411Z,11.00
2018-10-09T02:18:06.925Z,10.90
2018-10-09T02:20:35.425Z,10.90
2018-10-09T02:23:03.941Z,10.90
2018-10-09T02:25:32.443Z,10.90
2018-10-09T02:28:00.968Z,10.80
2018-10-09T02:30:29.468Z,10.80
2018-10-09T02:32:57.984Z,10.80
2018-10-09T02:35:26.444Z,10.70
2018-10-09T02:37:54.916Z,10.70
2018-10-09T02:40:23.406Z,10.70
2018-10-09T02:42:51.880Z,10.70
2018-10-09T02:45:20.338Z,10.60
2018-10-09T02:47:48.815Z,10.60
2018-10-09T02:50:17.409Z,10.60
2018-10-09T02:52:45.965Z,10.50
2018-10-09T02:55:14.593Z,10.40
2018-10-09T02:57:43.076Z,10.40
2018-10-09T03:00:11.606Z,10.40
2018-10-09T03:02:40.117Z,10.30
2018-10-09T03:05:08.700Z,10.40
2018-10-09T03:07:37.245Z,10.40
2018-10-09T03:10:05.925Z,10.40
2018-10-09T03:12:34.469Z,10.40
2018-10-09T03:15:03.040Z,10.40
2018-10-09T03:17:31.489Z,10.30
2018-10-09T03:20:00.161Z,10.30
2018-10-09T03:22:28.868Z,10.40
2018-10-09T03:24:57.412Z,10.30
2018-10-09T03:27:26.017Z,10.20
2018-10-09T03:29:54.594Z,10.20
2018-10-09T03:32:22.937Z,10.20
2018-10-09T03:34:51.391Z,10.20
2018-10-09T03:37:19.997Z,10.20
2018-10-09T03:39:48.562Z,10.20
2018-10-09T03:42:17.045Z,10.10
2018-10-09T03:44:45.522Z,10.10
2018-10-09T03:47:14.048Z,10.10
2018-10-09T03:49:42.572Z,10.10
2018-10-09T03:52:11.134Z,10.10
2018-10-09T03:54:39.685Z,10.10
2018-10-09T03:57:08.253Z,10.10
2018-10-09T03:59:36.873Z,10.10
2018-10-09T04:02:05.455Z,10.00
2018-10-09T04:04:33.940Z,10.00
2018-10-09T04:07:02.472Z,10.00
2018-10-09T04:09:31.103Z,10.00
2018-10-09T04:11:59.610Z,10.00
2018-10-09T04:14:28.804Z,10.00
2018-10-09T04:16:57.453Z,9.90
2018-10-09T04:19:26.074Z,9.90
2018-10-09T04:21:54.499Z,9.90
2018-10-09T04:24:23.090Z,9.90
2018-10-09T04:26:51.593Z,9.90
2018-10-09T04:29:19.958Z,9.90
2018-10-09T04:31:48.400Z,9.90
2018-10-09T04:34:16.722Z,9.90
2018-10-09T04:36:45.101Z,9.90
2018-10-09T04:39:13.464Z,9.80
2018-10-09T04:41:41.880Z,9.80
2018-10-09T04:44:26.628Z,9.80
2018-10-09T04:47:02.964Z,9.80
2018-10-09T04:49:31.352Z,9.70
2018-10-09T04:51:59.668Z,9.70
2018-10-09T04:54:28.042Z,9.60
2018-10-09T04:56:56.404Z,9.60
2018-10-09T04:59:24.748Z,9.60
2018-10-09T05:01:53.095Z,9.60
2018-10-09T05:04:21.440Z,9.60
2018-10-09T05:06:49.912Z,9.60
2018-10-09T05:09:18.395Z,9.60
2018-10-09T05:11:46.768Z,9.60
2018-10-09T05:14:15.143Z,9.50
2018-10-09T05:16:43.532Z,9.60
2018-10-09T05:19:11.856Z,9.50
2018-10-09T05:21:40.220Z,9.50
2018-10-09T05:24:08.581Z,9.50
2018-10-09T05:26:36.971Z,9.50
2018-10-09T05:29:05.339Z,9.50
2018-10-09T05:31:33.953Z,9.50
2018-10-09T05:34:02.343Z,9.50
2018-10-09T05:36:30.692Z,9.50
2018-10-09T05:38:59.054Z,9.50
2018-10-09T05:41:27.400Z,9.50
2018-10-09T05:43:55.772Z,9.50
2018-10-09T05:46:24.122Z,9.50
2018-10-09T05:48:52.493Z,9.40
2018-10-09T05:51:20.816Z,9.40
2018-10-09T05:53:49.159Z,9.40
2018-10-09T05:56:17.452Z,9.50
2018-10-09T05:58:45.868Z,9.40
2018-10-09T06:01:14.204Z,9.50
2018-10-09T06:03:42.612Z,9.50
2018-10-09T06:06:11.000Z,9.50
2018-10-09T06:08:39.404Z,9.40
2018-10-09T06:11:07.764Z,9.40
2018-10-09T06:13:36.196Z,9.40
2018-10-09T06:16:04.644Z,9.40
2018-10-09T06:18:33.012Z,9.40
2018-10-09T06:21:01.468Z,9.50
2018-10-09T06:23:30.089Z,9.50
2018-10-09T06:25:58.601Z,9.50
2018-10-09T06:28:27.241Z,9.50
2018-10-09T06:30:55.709Z,9.50
2018-10-09T06:33:24.108Z,9.50
2018-10-09T06:35:52.484Z,9.50
2018-10-09T06:38:20.824Z,9.50
2018-10-09T06:40:49.270Z,9.60
2018-10-09T06:43:17.673Z,9.60
2018-10-09T06:45:46.078Z,9.60
2018-10-09T06:48:14.461Z,9.60
2018-10-09T06:50:42.839Z,9.70
2018-10-09T06:53:11.308Z,9.70
2018-10-09T06:55:39.751Z,9.70
2018-10-09T06:58:08.335Z,9.70
2018-10-09T07:00:36.823Z,9.70
2018-10-09T07:03:05.304Z,9.80
2018-10-09T07:05:33.720Z,9.80
2018-10-09T07:08:02.174Z,9.80
2018-10-09T07:10:30.667Z,9.90
2018-10-09T07:12:59.129Z,9.90
2018-10-09T07:15:27.543Z,10.10
2018-10-09T07:17:56.008Z,10.10
2018-10-09T07:20:24.404Z,10.30
2018-10-09T07:22:53.375Z,10.40
2018-10-09T07:25:21.844Z,10.50
2018-10-09T07:27:50.259Z,10.60
2018-10-09T07:30:18.560Z,10.70
2018-10-09T07:32:46.995Z,10.80
2018-10-09T07:35:15.508Z,10.90
2018-10-09T07:37:43.882Z,11.00
2018-10-09T07:40:12.256Z,11.10
2018-10-09T07:42:40.737Z,11.20
2018-10-09T07:45:09.076Z,11.30
2018-10-09T07:47:37.447Z,11.50
2018-10-09T07:50:06.040Z,11.60
2018-10-09T07:52:34.382Z,11.70
2018-10-09T07:55:02.799Z,11.90
2018-10-09T07:57:31.158Z,12.00
2018-10-09T07:59:59.495Z,12.00
2018-10-09T08:02:27.951Z,12.10
2018-10-09T08:04:56.440Z,12.20
2018-10-09T08:07:24.831Z,12.30
2018-10-09T08:09:53.203Z,12.30
2018-10-09T08:12:21.644Z,12.30
2018-10-09T08:14:50.039Z,12.30
2018-10-09T08:17:18.806Z,12.40
2018-10-09T08:19:47.613Z,12.50
2018-10-09T08:22:16.296Z,12.70
2018-10-09T08:24:44.603Z,12.80
2018-10-09T08:27:12.911Z,13.00
2018-10-09T08:29:41.300Z,13.20
2018-10-09T08:32:09.851Z,13.20
2018-10-09T08:34:38.357Z,13.30
2018-10-09T08:37:07.703Z,13.50
2018-10-09T08:39:36.168Z,13.70
2018-10-09T08:42:04.516Z,13.80
2018-10-09T08:44:32.900Z,13.90
2018-10-09T08:47:01.444Z,14.00
2018-10-09T08:49:30.060Z,14.20
2018-10-09T08:51:58.769Z,14.50
2018-10-09T08:54:27.391Z,14.60
2018-10-09T08:56:56.045Z,14.80
2018-10-09T08:59:24.540Z,15.00
2018-10-09T09:01:52.968Z,15.10
2018-10-09T09:04:21.412Z,15.20
2018-10-09T09:06:49.823Z,14.90
2018-10-09T09:09:18.301Z,15.00
2018-10-09T09:11:46.845Z,14.90
2018-10-09T09:14:15.299Z,15.00
2018-10-09T09:16:43.760Z,15.30
2018-10-09T09:19:12.229Z,15.40
2018-10-09T09:21:40.714Z,15.60
2018-10-09T09:24:09.135Z,15.50
2018-10-09T09:26:37.653Z,15.60
2018-10-09T09:29:06.058Z,15.60
2018-10-09T09:31:34.482Z,15.80
2018-10-09T09:34:02.995Z,15.80
2018-10-09T09:36:31.462Z,15.80
2018-10-09T09:38:59.878Z,16.10
2018-10-09T09:41:34.612Z,16.10
2018-10-09T09:44:03.057Z,16.20
2018-10-09T09:46:31.576Z,16.40
2018-10-09T09:49:00.010Z,16.60
2018-10-09T09:51:28.453Z,16.90
2018-10-09T09:53:56.909Z,16.90
2018-10-09T09:56:25.440Z,17.20
2018-10-09T09:58:54.021Z,17.40
2018-10-09T10:01:27.537Z,17.70
2018-10-09T10:03:56.257Z,17.60
2018-10-09T10:06:24.652Z,17.50
2018-10-09T10:08:53.065Z,17.60
2018-10-09T10:11:22.344Z,17.70
2018-10-09T10:13:50.693Z,18.10
2018-10-09T10:16:19.144Z,18.20
2018-10-09T10:18:47.565Z,18.20
2018-10-09T10:21:15.986Z,18.40
2018-10-09T10:23:44.366Z,18.50
2018-10-09T10:26:12.796Z,18.50
2018-10-09T10:28:41.187Z,18.80
2018-10-09T10:31:09.615Z,18.90
2018-10-09T10:33:38.051Z,18.90
2018-10-09T10:36:06.515Z,19.00
2018-10-09T10:38:35.207Z,19.50
2018-10-09T10:41:03.644Z,19.90
2018-10-09T10:43:31.967Z,20.20
2018-10-09T10:46:00.328Z,20.40
2018-10-09T10:48:28.704Z,20.80
2018-10-09T10:50:57.046Z,20.80
2018-10-09T10:53:25.403Z,21.10
2018-10-09T10:55:53.766Z,21.40
2018-10-09T10:58:23.080Z,21.70
2018-10-09T11:00:51.505Z,21.50
2018-10-09T11:03:19.857Z,22.00
2018-10-09T11:05:48.188Z,21.90
2018-10-09T11:08:16.951Z,21.70
2018-10-09T11:10:45.316Z,21.90
2018-10-09T11:13:13.689Z,22.60
2018-10-09T11:15:42.020Z,23.20
2018-10-09T11:18:10.392Z,23.40
2018-10-09T11:20:38.728Z,23.40
2018-10-09T11:23:07.172Z,22.70
2018-10-09T11:25:35.548Z,23.10
2018-10-09T11:28:03.912Z,22.90
2018-10-09T11:30:32.289Z,23.30
2018-10-09T11:33:00.614Z,23.40
2018-10-09T11:35:28.997Z,23.70
2018-10-09T11:37:57.341Z,23.60
2018-10-09T11:40:25.704Z,23.70
2018-10-09T11:42:54.126Z,24.00
2018-10-09T11:45:22.478Z,24.30
2018-10-09T11:47:50.812Z,24.30
2018-10-09T11:50:19.232Z,24.10
2018-10-09T11:52:47.608Z,24.50
2018-10-09T11:55:16.041Z,24.10
2018-10-09T11:57:44.364Z,24.10
2018-10-09T12:00:12.728Z,24.40
2018-10-09T12:02:41.132Z,24.90
2018-10-09T12:05:09.509Z,25.00
2018-10-09T12:07:38.056Z,25.40
2018-10-09T12:10:06.665Z,25.40
2018-10-09T12:12:34.992Z,24.70
2018-10-09T12:15:03.364Z,25.00
2018-10-09T12:17:31.698Z,25.30
2018-10-09T12:20:00.039Z,25.10
2018-10-09T12:22:28.453Z,24.90
2018-10-09T12:24:56.804Z,25.10
2018-10-09T12:27:25.166Z,25.10
2018-10-09T12:29:53.492Z,25.00
2018-10-09T12:32:22.168Z,24.70
2018-10-09T12:34:50.499Z,24.40
2018-10-09T12:37:18.851Z,24.30
2018-10-09T12:39:47.155Z,24.10
2018-10-09T12:42:15.534Z,24.00
2018-10-09T12:44:43.879Z,24.20
2018-10-09T12:47:12.269Z,24.10
2018-10-09T12:49:40.657Z,24.20
2018-10-09T12:52:09.029Z,24.30
2018-10-09T12:54:37.577Z,24.40
2018-10-09T12:57:06.223Z,24.50
2018-10-09T12:59:34.621Z,24.70
2018-10-09T13:02:02.953Z,25.10
2018-10-09T13:04:31.641Z,24.90
2018-10-09T13:07:00.074Z,25.40
2018-10-09T13:09:28.455Z,25.30
2018-10-09T13:11:56.981Z,25.20
2018-10-09T13:14:25.299Z,24.80
2018-10-09T13:16:54.489Z,24.50
2018-10-09T13:19:22.900Z,24.60
2018-10-09T13:21:51.305Z,24.80
2018-10-09T13:24:22.572Z,24.90
2018-10-09T13:26:51.319Z,24.80
2018-10-09T13:29:19.808Z,23.90
2018-10-09T13:31:49.292Z,23.30
2018-10-09T13:34:18.194Z,23.30
2018-10-09T13:36:46.666Z,23.20
2018-10-09T13:39:15.054Z,23.40
2018-10-09T13:41:43.465Z,23.60
2018-10-09T13:44:11.905Z,23.40
2018-10-09T13:46:40.302Z,23.60
2018-10-09T13:49:09.967Z,23.40
2018-10-09T13:51:38.360Z,23.40
2018-10-09T13:54:06.773Z,23.70
2018-10-09T13:56:35.110Z,23.70
2018-10-09T13:59:03.531Z,23.90
2018-10-09T14:01:31.865Z,23.70
2018-10-09T14:04:00.252Z,23.80
2018-10-09T14:06:28.564Z,23.80
2018-10-09T14:08:56.978Z,23.90
2018-10-09T14:11:25.381Z,23.70
2018-10-09T14:13:53.758Z,23.90
2018-10-09T14:16:22.209Z,23.80
2018-10-09T14:18:50.490Z,24.00
2018-10-09T14:21:18.835Z,24.20
2018-10-09T14:23:47.270Z,24.40
2018-10-09T14:26:15.634Z,24.70
2018-10-09T14:28:44.009Z,25.00
2018-10-09T14:31:12.365Z,25.40
2018-10-09T14:33:40.736Z,25.30
2018-10-09T14:36:09.108Z,25.50
2018-10-09T14:38:37.463Z,25.80
2018-10-09T14:41:05.864Z,26.40
2018-10-09T14:43:34.207Z,26.60
2018-10-09T14:46:02.589Z,26.60
2018-10-09T14:48:30.983Z,26.40
2018-10-09T14:50:59.369Z,26.00
2018-10-09T14:53:27.793Z,25.90
2018-10-09T14:55:56.172Z,25.60
2018-10-09T14:58:24.542Z,25.30
2018-10-09T15:00:52.909Z,25.20
2018-10-09T15:03:21.301Z,25.10
2018-10-09T15:05:49.660Z,25.10
2018-10-09T15:08:18.106Z,25.00
2018-10-09T15:10:46.513Z,25.00
2018-10-09T15:13:15.050Z,24.80
2018-10-09T15:15:43.462Z,24.60
2018-10-09T15:18:11.901Z,24.30
2018-10-09T15:20:40.395Z,24.20
2018-10-09T15:23:08.869Z,24.10
2018-10-09T15:25:37.254Z,23.90
2018-10-09T15:28:05.759Z,23.80
2018-10-09T15:30:34.467Z,23.70
2018-10-09T15:33:02.989Z,23.60
2018-10-09T15:35:31.579Z,23.40
2018-10-09T15:38:00.068Z,23.30
2018-10-09T15:40:28.720Z,23.30
2018-10-09T15:42:57.118Z,23.20
2018-10-09T15:45:25.649Z,23.20
2018-10-09T15:47:54.258Z,23.10
2018-10-09T15:50:22.721Z,23.10
2018-10-09T15:52:51.306Z,23.00
2018-10-09T15:55:19.784Z,22.90
2018-10-09T15:57:48.319Z,22.70
2018-10-09T16:00:16.808Z,22.60
2018-10-09T16:02:45.189Z,22.40
2018-10-09T16:05:13.562Z,22.20
2018-10-09T16:07:42.018Z,22.10
2018-10-09T16:10:10.356Z,22.10
2018-10-09T16:12:38.738Z,22.00
2018-10-09T16:15:07.225Z,21.90
2018-10-09T16:17:35.859Z,21.80
2018-10-09T16:20:04.815Z,21.70
2018-10-09T16:22:33.241Z,21.60
2018-10-09T16:25:01.929Z,21.60
2018-10-09T16:27:30.420Z,21.50
2018-10-09T16:29:58.898Z,21.30
2018-10-09T16:32:27.619Z,21.10
2018-10-09T16:34:55.944Z,21.00
2018-10-09T16:37:24.545Z,20.90
2018-10-09T16:39:53.058Z,20.70
2018-10-09T16:42:21.827Z,20.60
2018-10-09T16:44:50.279Z,20.50
2018-10-09T16:47:19.474Z,20.30
2018-10-09T16:49:48.836Z,20.10
2018-10-09T16:52:17.553Z,19.90
2018-10-09T16:54:47.617Z,19.70
2018-10-09T16:57:16.125Z,19.60
2018-10-09T16:59:44.690Z,19.60
2018-10-09T17:02:13.254Z,19.60
2018-10-09T17:04:42.064Z,19.40
2018-10-09T17:07:10.436Z,19.30
2018-10-09T17:09:38.863Z,19.20
2018-10-09T17:12:07.350Z,19.10
2018-10-09T17:14:35.872Z,18.90
2018-10-09T17:17:04.465Z,18.90
2018-10-09T17:19:33.232Z,18.80
2018-10-09T17:22:01.727Z,18.70
2018-10-09T17:24:30.436Z,18.70
2018-10-09T17:26:59.023Z,18.60
2018-10-09T17:29:27.447Z,18.60
2018-10-09T17:31:56.045Z,18.50
2018-10-09T17:34:24.809Z,18.40
2018-10-09T17:36:53.618Z,18.30
2018-10-09T17:39:22.454Z,18.30
2018-10-09T17:41:51.129Z,18.20
2018-10-09T17:44:19.819Z,18.10
2018-10-09T17:46:48.703Z,18.00
2018-10-09T17:49:17.657Z,18.00
2018-10-09T17:51:47.336Z,18.00
2018-10-09T17:54:17.585Z,17.90
2018-10-09T17:56:47.042Z,17.80
2018-10-09T17:59:16.878Z,17.90
2018-10-09T18:01:46.927Z,17.80
2018-10-09T18:04:17.192Z,17.70
2018-10-09T18:06:47.004Z,17.60
2018-10-09T18:09:17.081Z,17.50
2018-10-09T18:11:46.941Z,17.40
2018-10-09T18:14:19.020Z,17.30
2018-10-09T18:17:29.026Z,17.30
2018-10-09T18:20:07.107Z,17.20
2018-10-09T18:23:00.145Z,17.10
2018-10-09T18:25:28.808Z,17.00
2018-10-09T18:34:02.130Z,16.90
2018-10-09T18:39:33.146Z,16.80
2018-10-09T18:42:01.933Z,16.70
2018-10-09T18:44:54.728Z,16.70
2018-10-09T18:47:29.847Z,16.70
2018-10-09T18:50:05.487Z,16.60
2018-10-09T18:52:34.500Z,16.50
2018-10-09T18:55:10.113Z,16.50
2018-10-09T18:57:38.849Z,16.50
2018-10-09T19:00:08.248Z,16.40
2018-10-09T19:02:36.869Z,16.40
2018-10-09T19:05:05.574Z,16.30
2018-10-09T19:07:34.347Z,16.30
2018-10-09T19:10:02.984Z,16.30
2018-10-09T19:12:31.549Z,16.20
2018-10-09T19:15:00.512Z,16.20
2018-10-09T19:17:29.438Z,16.10
2018-10-09T19:19:58.544Z,16.10
2018-10-09T19:22:26.960Z,16.00
2018-10-09T19:24:55.410Z,15.90
2018-10-09T19:27:24.346Z,15.80
2018-10-09T19:29:53.292Z,15.80
2018-10-09T19:32:22.085Z,15.70
2018-10-09T19:34:50.566Z,15.70
2018-10-09T19:37:19.128Z,15.70
2018-10-09T19:39:48.094Z,15.60
2018-10-09T19:42:16.666Z,15.60
2018-10-09T19:44:45.096Z,15.50
2018-10-09T19:47:13.676Z,15.50
2018-10-09T19:49:42.245Z,15.50
2018-10-09T19:52:10.911Z,15.40
2018-10-09T19:54:39.332Z,15.40
2018-10-09T19:57:07.742Z,15.40
2018-10-09T19:59:36.196Z,15.30
2018-10-09T20:02:04.752Z,15.40
2018-10-09T20:04:33.301Z,15.40
2018-10-09T20:07:01.776Z,15.40
2018-10-09T20:09:30.217Z,15.30
2018-10-09T20:11:59.530Z,15.30
2018-10-09T20:14:28.094Z,15.30
2018-10-09T20:16:56.576Z,15.50
2018-10-09T20:19:24.970Z,15.50
2018-10-09T20:21:53.482Z,15.50
2018-10-09T20:24:21.900Z,15.60
2018-10-09T20:26:50.421Z,15.50
2018-10-09T20:29:18.969Z,15.50
2018-10-09T20:31:47.546Z,15.50
2018-10-09T20:34:16.193Z,15.50
2018-10-09T20:36:44.608Z,15.50
2018-10-09T20:39:13.066Z,15.50
2018-10-09T20:41:41.728Z,15.60
2018-10-09T20:44:10.225Z,15.50
2018-10-09T20:46:38.723Z,15.50
2018-10-09T20:49:07.368Z,15.50
2018-10-09T20:51:35.978Z,15.40
2018-10-09T20:54:04.574Z,15.30
2018-10-09T20:56:33.751Z,15.30
2018-10-09T20:59:02.386Z,15.20
2018-10-09T21:01:31.143Z,15.10
2018-10-09T21:03:59.814Z,15.00
2018-10-09T21:06:28.415Z,15.00
2018-10-09T21:08:56.952Z,14.90
2018-10-09T21:11:25.552Z,14.90
2018-10-09T21:13:54.289Z,14.90
2018-10-09T21:16:22.954Z,14.80
2018-10-09T21:18:51.585Z,14.70
2018-10-09T21:21:20.174Z,14.60
2018-10-09T21:23:48.990Z,14.60
2018-10-09T21:26:17.702Z,14.60
2018-10-09T21:28:46.373Z,14.60
2018-10-09T21:31:15.141Z,14.60
2018-10-09T21:33:43.922Z,14.50
2018-10-09T21:36:12.584Z,14.50
2018-10-09T21:38:41.372Z,14.50
2018-10-09T21:41:10.122Z,14.40
2018-10-09T21:43:38.924Z,14.40
2018-10-09T21:46:07.663Z,14.40
2018-10-09T21:48:36.261Z,14.30
2018-10-09T21:51:04.865Z,14.40
2018-10-09T21:53:33.368Z,14.40
2018-10-09T21:56:01.945Z,14.50
2018-10-09T21:58:30.540Z,14.50
2018-10-09T22:01:04.396Z,14.40
2018-10-09T22:03:32.963Z,14.40
2018-10-09T22:06:01.481Z,14.50
2018-10-09T22:08:30.005Z,14.40
2018-10-09T22:10:58.932Z,14.40
2018-10-09T22:13:27.827Z,14.40
2018-10-09T22:15:56.477Z,14.30
2018-10-09T22:18:25.213Z,14.30
2018-10-09T22:20:53.832Z,14.30
2018-10-09T22:23:22.485Z,14.30
2018-10-09T22:25:51.043Z,14.40
2018-10-09T22:28:19.637Z,14.30
2018-10-09T22:30:48.293Z,14.30
2018-10-09T22:33:16.949Z,14.30
2018-10-09T22:35:45.614Z,14.20
2018-10-09T22:38:14.137Z,14.10
2018-10-09T22:40:42.686Z,14.00
2018-10-09T22:43:11.404Z,14.00
2018-10-09T22:45:39.993Z,14.00
2018-10-09T22:48:08.461Z,13.90
2018-10-09T22:50:37.104Z,13.90
2018-10-09T22:53:05.738Z,13.80
2018-10-09T22:55:34.345Z,13.80
2018-10-09T22:58:03.021Z,13.80
2018-10-09T23:00:31.605Z,13.70
2018-10-09T23:03:00.183Z,13.70
2018-10-09T23:05:28.946Z,13.70
2018-10-09T23:07:57.564Z,13.60
2018-10-09T23:10:26.200Z,13.60
2018-10-09T23:12:54.797Z,13.60
2018-10-09T23:15:23.434Z,13.50
2018-10-09T23:17:52.107Z,13.50
2018-10-09T23:20:20.592Z,13.40
2018-10-09T23:22:49.129Z,13.40
2018-10-09T23:25:17.728Z,13.40
2018-10-09T23:27:46.300Z,13.40
2018-10-09T23:30:14.879Z,13.40
2018-10-09T23:32:43.553Z,13.30
2018-10-09T23:35:12.153Z,13.30
2018-10-09T23:37:40.759Z,13.20
2018-10-09T23:40:09.289Z,13.20
2018-10-09T23:42:37.850Z,13.20
2018-10-09T23:45:06.393Z,13.20
2018-10-09T23:47:35.069Z,13.10
2018-10-09T23:50:03.782Z,13.10
2018-10-09T23:52:32.405Z,13.00
2018-10-09T23:55:01.074Z,13.00
2018-10-09T23:57:29.874Z,13.00
2018-10-09T23:59:58.356Z,13.00
